sensor_id;sensor_type;location;lat;lon;timestamp;P1;durP1;ratioP1;P2;durP2;ratioP2
71475;SDS011;59286;59.274;17.974;2022-10-31T00:00:54;10.45;;;6.32;;
71475;SDS011;59286;59.274;17.974;2022-10-31T00:03:20;8.50;;;5.70;;
71475;SDS011;59286;59.274;17.974;2022-10-31T00:05:47;7.03;;;5.13;;
71475;SDS011;59286;59.274;17.974;2022-10-31T00:08:14;8.05;;;5.32;;
71475;SDS011;59286;59.274;17.974;2022-10-31T00:10:41;8.93;;;5.53;;
71475;SDS011;59286;59.274;17.974;2022-10-31T00:13:07;8.23;;;5.38;;
71475;SDS011;59286;59.274;17.974;2022-10-31T00:15:34;13.60;;;5.60;;
71475;SDS011;59286;59.274;17.974;2022-10-31T00:18:00;8.38;;;5.15;;
71475;SDS011;59286;59.274;17.974;2022-10-31T00:20:26;7.70;;;4.70;;
71475;SDS011;59286;59.274;17.974;2022-10-31T00:22:57;7.82;;;5.32;;
71475;SDS011;59286;59.274;17.974;2022-10-31T00:25:24;9.88;;;5.22;;
71475;SDS011;59286;59.274;17.974;2022-10-31T00:27:50;6.22;;;4.55;;
71475;SDS011;59286;59.274;17.974;2022-10-31T00:30:15;8.50;;;5.22;;
71475;SDS011;59286;59.274;17.974;2022-10-31T00:32:40;8.88;;;4.40;;
71475;SDS011;59286;59.274;17.974;2022-10-31T00:35:06;7.38;;;4.70;;
71475;SDS011;59286;59.274;17.974;2022-10-31T00:37:31;7.78;;;5.38;;
71475;SDS011;59286;59.274;17.974;2022-10-31T00:39:57;8.82;;;5.65;;
71475;SDS011;59286;59.274;17.974;2022-10-31T00:42:22;12.30;;;6.22;;
71475;SDS011;59286;59.274;17.974;2022-10-31T00:44:48;10.43;;;5.85;;
71475;SDS011;59286;59.274;17.974;2022-10-31T00:47:13;9.80;;;6.30;;
71475;SDS011;59286;59.274;17.974;2022-10-31T00:49:39;12.32;;;6.07;;
71475;SDS011;59286;59.274;17.974;2022-10-31T00:52:04;8.02;;;5.97;;
71475;SDS011;59286;59.274;17.974;2022-10-31T00:54:29;11.48;;;6.22;;
71475;SDS011;59286;59.274;17.974;2022-10-31T00:56:56;12.30;;;7.07;;
71475;SDS011;59286;59.274;17.974;2022-10-31T00:59:21;12.95;;;5.00;;
71475;SDS011;59286;59.274;17.974;2022-10-31T01:01:47;10.45;;;5.07;;
71475;SDS011;59286;59.274;17.974;2022-10-31T01:04:12;7.38;;;4.38;;
71475;SDS011;59286;59.274;17.974;2022-10-31T01:06:37;10.85;;;5.13;;
71475;SDS011;59286;59.274;17.974;2022-10-31T01:09:03;10.00;;;4.53;;
71475;SDS011;59286;59.274;17.974;2022-10-31T01:11:28;8.65;;;4.25;;
71475;SDS011;59286;59.274;17.974;2022-10-31T01:13:54;6.05;;;3.88;;
71475;SDS011;59286;59.274;17.974;2022-10-31T01:16:21;5.00;;;3.70;;
71475;SDS011;59286;59.274;17.974;2022-10-31T01:18:48;6.70;;;4.88;;
71475;SDS011;59286;59.274;17.974;2022-10-31T01:21:15;8.38;;;5.78;;
71475;SDS011;59286;59.274;17.974;2022-10-31T01:23:43;8.23;;;6.15;;
71475;SDS011;59286;59.274;17.974;2022-10-31T01:26:16;10.77;;;5.95;;
71475;SDS011;59286;59.274;17.974;2022-10-31T01:28:48;10.10;;;5.10;;
71475;SDS011;59286;59.274;17.974;2022-10-31T01:31:16;8.02;;;4.82;;
71475;SDS011;59286;59.274;17.974;2022-10-31T01:33:43;8.30;;;5.63;;
71475;SDS011;59286;59.274;17.974;2022-10-31T01:38:40;10.05;;;5.45;;
71475;SDS011;59286;59.274;17.974;2022-10-31T01:41:06;15.30;;;5.90;;
71475;SDS011;59286;59.274;17.974;2022-10-31T01:46:36;8.45;;;4.70;;
71475;SDS011;59286;59.274;17.974;2022-10-31T01:49:08;6.53;;;4.20;;
71475;SDS011;59286;59.274;17.974;2022-10-31T01:51:40;6.32;;;4.22;;
71475;SDS011;59286;59.274;17.974;2022-10-31T01:54:12;11.35;;;4.63;;
71475;SDS011;59286;59.274;17.974;2022-10-31T01:56:41;9.43;;;4.82;;
71475;SDS011;59286;59.274;17.974;2022-10-31T01:59:10;9.50;;;4.18;;
71475;SDS011;59286;59.274;17.974;2022-10-31T02:01:39;9.60;;;5.13;;
71475;SDS011;59286;59.274;17.974;2022-10-31T02:04:05;5.80;;;4.03;;
71475;SDS011;59286;59.274;17.974;2022-10-31T02:06:33;10.15;;;4.15;;
71475;SDS011;59286;59.274;17.974;2022-10-31T02:09:03;9.00;;;4.45;;
71475;SDS011;59286;59.274;17.974;2022-10-31T02:11:31;13.65;;;5.05;;
71475;SDS011;59286;59.274;17.974;2022-10-31T02:13:59;9.75;;;5.72;;
71475;SDS011;59286;59.274;17.974;2022-10-31T02:16:26;6.93;;;3.95;;
71475;SDS011;59286;59.274;17.974;2022-10-31T02:18:52;7.30;;;4.18;;
71475;SDS011;59286;59.274;17.974;2022-10-31T02:21:52;9.13;;;4.30;;
71475;SDS011;59286;59.274;17.974;2022-10-31T02:27:16;6.90;;;4.25;;
71475;SDS011;59286;59.274;17.974;2022-10-31T02:30:16;10.32;;;3.50;;
71475;SDS011;59286;59.274;17.974;2022-10-31T02:32:52;7.75;;;4.72;;
71475;SDS011;59286;59.274;17.974;2022-10-31T02:41:29;7.68;;;4.03;;
71475;SDS011;59286;59.274;17.974;2022-10-31T02:44:12;9.85;;;3.78;;
71475;SDS011;59286;59.274;17.974;2022-10-31T02:46:59;15.70;;;6.60;;
71475;SDS011;59286;59.274;17.974;2022-10-31T02:49:32;8.90;;;4.22;;
71475;SDS011;59286;59.274;17.974;2022-10-31T02:52:13;13.20;;;4.70;;
71475;SDS011;59286;59.274;17.974;2022-10-31T02:54:52;8.73;;;4.97;;
71475;SDS011;59286;59.274;17.974;2022-10-31T02:57:25;12.40;;;4.97;;
71475;SDS011;59286;59.274;17.974;2022-10-31T02:59:57;11.93;;;5.50;;
71475;SDS011;59286;59.274;17.974;2022-10-31T03:11:06;8.05;;;4.65;;
71475;SDS011;59286;59.274;17.974;2022-10-31T03:18:56;10.75;;;4.32;;
71475;SDS011;59286;59.274;17.974;2022-10-31T03:21:27;17.63;;;6.22;;
71475;SDS011;59286;59.274;17.974;2022-10-31T03:23:59;11.85;;;6.05;;
71475;SDS011;59286;59.274;17.974;2022-10-31T03:26:26;19.65;;;7.72;;
71475;SDS011;59286;59.274;17.974;2022-10-31T03:28:59;12.05;;;5.75;;
71475;SDS011;59286;59.274;17.974;2022-10-31T03:31:54;10.27;;;4.68;;
71475;SDS011;59286;59.274;17.974;2022-10-31T03:34:23;12.85;;;5.88;;
71475;SDS011;59286;59.274;17.974;2022-10-31T03:36:49;11.85;;;4.55;;
71475;SDS011;59286;59.274;17.974;2022-10-31T03:39:18;13.73;;;5.03;;
71475;SDS011;59286;59.274;17.974;2022-10-31T03:41:52;13.98;;;5.07;;
71475;SDS011;59286;59.274;17.974;2022-10-31T03:44:22;8.07;;;4.00;;
71475;SDS011;59286;59.274;17.974;2022-10-31T03:46:49;15.63;;;5.07;;
71475;SDS011;59286;59.274;17.974;2022-10-31T03:49:15;14.35;;;4.53;;
71475;SDS011;59286;59.274;17.974;2022-10-31T03:54:36;21.38;;;5.85;;
71475;SDS011;59286;59.274;17.974;2022-10-31T03:57:15;10.55;;;5.25;;
71475;SDS011;59286;59.274;17.974;2022-10-31T03:59:50;15.25;;;5.18;;
71475;SDS011;59286;59.274;17.974;2022-10-31T04:02:21;17.60;;;5.25;;
71475;SDS011;59286;59.274;17.974;2022-10-31T04:04:50;17.55;;;6.47;;
71475;SDS011;59286;59.274;17.974;2022-10-31T04:07:16;19.85;;;6.65;;
71475;SDS011;59286;59.274;17.974;2022-10-31T04:09:44;10.07;;;3.22;;
71475;SDS011;59286;59.274;17.974;2022-10-31T04:12:12;22.70;;;6.15;;
71475;SDS011;59286;59.274;17.974;2022-10-31T04:14:41;14.93;;;4.60;;
71475;SDS011;59286;59.274;17.974;2022-10-31T04:17:11;19.55;;;6.35;;
71475;SDS011;59286;59.274;17.974;2022-10-31T04:19:39;26.65;;;7.53;;
71475;SDS011;59286;59.274;17.974;2022-10-31T04:22:05;19.52;;;4.95;;
71475;SDS011;59286;59.274;17.974;2022-10-31T04:24:31;16.17;;;4.70;;
71475;SDS011;59286;59.274;17.974;2022-10-31T04:26:57;22.35;;;5.60;;
71475;SDS011;59286;59.274;17.974;2022-10-31T04:29:22;29.67;;;7.57;;
71475;SDS011;59286;59.274;17.974;2022-10-31T04:31:48;41.45;;;8.80;;
71475;SDS011;59286;59.274;17.974;2022-10-31T04:34:13;44.70;;;8.98;;
71475;SDS011;59286;59.274;17.974;2022-10-31T04:36:39;31.98;;;5.50;;
71475;SDS011;59286;59.274;17.974;2022-10-31T04:39:04;52.47;;;7.28;;
71475;SDS011;59286;59.274;17.974;2022-10-31T04:41:30;34.47;;;6.35;;
71475;SDS011;59286;59.274;17.974;2022-10-31T04:43:55;60.40;;;11.13;;
71475;SDS011;59286;59.274;17.974;2022-10-31T04:46:21;65.45;;;8.52;;
71475;SDS011;59286;59.274;17.974;2022-10-31T04:48:46;86.35;;;13.20;;
71475;SDS011;59286;59.274;17.974;2022-10-31T04:51:11;54.85;;;9.05;;
71475;SDS011;59286;59.274;17.974;2022-10-31T04:53:37;58.53;;;9.15;;
71475;SDS011;59286;59.274;17.974;2022-10-31T04:56:02;121.68;;;15.13;;
71475;SDS011;59286;59.274;17.974;2022-10-31T04:58:28;84.60;;;9.35;;
71475;SDS011;59286;59.274;17.974;2022-10-31T05:00:54;93.00;;;11.75;;
71475;SDS011;59286;59.274;17.974;2022-10-31T05:03:20;92.93;;;9.30;;
71475;SDS011;59286;59.274;17.974;2022-10-31T05:05:46;105.82;;;11.25;;
71475;SDS011;59286;59.274;17.974;2022-10-31T05:08:12;173.52;;;13.20;;
71475;SDS011;59286;59.274;17.974;2022-10-31T05:10:38;477.02;;;24.73;;
71475;SDS011;59286;59.274;17.974;2022-10-31T05:13:04;325.15;;;16.63;;
71475;SDS011;59286;59.274;17.974;2022-10-31T05:15:29;120.75;;;7.15;;
71475;SDS011;59286;59.274;17.974;2022-10-31T05:17:55;431.17;;;20.90;;
71475;SDS011;59286;59.274;17.974;2022-10-31T05:20:23;344.05;;;15.55;;
71475;SDS011;59286;59.274;17.974;2022-10-31T05:22:53;390.10;;;17.83;;
71475;SDS011;59286;59.274;17.974;2022-10-31T05:25:20;289.00;;;11.43;;
71475;SDS011;59286;59.274;17.974;2022-10-31T05:27:48;187.27;;;10.25;;
71475;SDS011;59286;59.274;17.974;2022-10-31T05:30:16;255.70;;;11.90;;
71475;SDS011;59286;59.274;17.974;2022-10-31T05:32:47;180.20;;;10.63;;
71475;SDS011;59286;59.274;17.974;2022-10-31T05:35:15;220.43;;;8.80;;
71475;SDS011;59286;59.274;17.974;2022-10-31T05:37:42;41.50;;;4.63;;
71475;SDS011;59286;59.274;17.974;2022-10-31T05:40:09;220.45;;;13.10;;
71475;SDS011;59286;59.274;17.974;2022-10-31T05:42:37;198.82;;;11.13;;
71475;SDS011;59286;59.274;17.974;2022-10-31T05:45:05;339.27;;;17.25;;
71475;SDS011;59286;59.274;17.974;2022-10-31T05:47:31;320.08;;;15.90;;
71475;SDS011;59286;59.274;17.974;2022-10-31T05:49:56;284.95;;;15.48;;
71475;SDS011;59286;59.274;17.974;2022-10-31T05:52:22;404.17;;;19.05;;
71475;SDS011;59286;59.274;17.974;2022-10-31T05:54:47;318.75;;;13.00;;
71475;SDS011;59286;59.274;17.974;2022-10-31T05:57:13;274.98;;;15.98;;
71475;SDS011;59286;59.274;17.974;2022-10-31T05:59:38;151.77;;;12.63;;
71475;SDS011;59286;59.274;17.974;2022-10-31T06:02:03;249.43;;;13.50;;
71475;SDS011;59286;59.274;17.974;2022-10-31T06:04:29;133.90;;;11.25;;
71475;SDS011;59286;59.274;17.974;2022-10-31T06:06:55;139.50;;;8.80;;
71475;SDS011;59286;59.274;17.974;2022-10-31T06:09:21;198.30;;;13.40;;
71475;SDS011;59286;59.274;17.974;2022-10-31T06:11:47;124.82;;;12.60;;
71475;SDS011;59286;59.274;17.974;2022-10-31T06:14:12;37.17;;;4.97;;
71475;SDS011;59286;59.274;17.974;2022-10-31T06:16:37;65.25;;;5.88;;
71475;SDS011;59286;59.274;17.974;2022-10-31T06:19:03;103.68;;;7.85;;
71475;SDS011;59286;59.274;17.974;2022-10-31T06:21:28;86.82;;;11.52;;
71475;SDS011;59286;59.274;17.974;2022-10-31T06:23:54;112.85;;;6.90;;
71475;SDS011;59286;59.274;17.974;2022-10-31T06:26:19;218.57;;;15.43;;
71475;SDS011;59286;59.274;17.974;2022-10-31T06:28:44;116.32;;;10.90;;
71475;SDS011;59286;59.274;17.974;2022-10-31T06:31:11;140.73;;;12.95;;
71475;SDS011;59286;59.274;17.974;2022-10-31T06:33:37;129.15;;;13.77;;
71475;SDS011;59286;59.274;17.974;2022-10-31T06:36:02;106.90;;;11.65;;
71475;SDS011;59286;59.274;17.974;2022-10-31T06:38:28;236.00;;;14.18;;
71475;SDS011;59286;59.274;17.974;2022-10-31T06:40:54;163.68;;;15.32;;
71475;SDS011;59286;59.274;17.974;2022-10-31T06:43:22;131.98;;;10.20;;
71475;SDS011;59286;59.274;17.974;2022-10-31T06:45:48;186.70;;;14.38;;
71475;SDS011;59286;59.274;17.974;2022-10-31T06:48:13;123.05;;;11.40;;
71475;SDS011;59286;59.274;17.974;2022-10-31T06:50:39;69.43;;;5.80;;
71475;SDS011;59286;59.274;17.974;2022-10-31T06:53:04;91.97;;;8.70;;
71475;SDS011;59286;59.274;17.974;2022-10-31T06:55:30;220.95;;;18.48;;
71475;SDS011;59286;59.274;17.974;2022-10-31T06:57:56;53.80;;;7.35;;
71475;SDS011;59286;59.274;17.974;2022-10-31T07:00:26;82.50;;;9.15;;
71475;SDS011;59286;59.274;17.974;2022-10-31T07:03:00;99.65;;;12.57;;
71475;SDS011;59286;59.274;17.974;2022-10-31T07:05:27;67.97;;;11.43;;
71475;SDS011;59286;59.274;17.974;2022-10-31T07:07:58;163.85;;;16.60;;
71475;SDS011;59286;59.274;17.974;2022-10-31T07:10:25;47.03;;;5.80;;
71475;SDS011;59286;59.274;17.974;2022-10-31T07:12:59;143.85;;;15.93;;
71475;SDS011;59286;59.274;17.974;2022-10-31T07:15:27;188.45;;;17.33;;
71475;SDS011;59286;59.274;17.974;2022-10-31T07:17:53;121.90;;;16.25;;
71475;SDS011;59286;59.274;17.974;2022-10-31T07:20:23;79.15;;;12.30;;
71475;SDS011;59286;59.274;17.974;2022-10-31T07:22:49;117.47;;;15.15;;
71475;SDS011;59286;59.274;17.974;2022-10-31T07:25:14;86.93;;;12.77;;
71475;SDS011;59286;59.274;17.974;2022-10-31T07:27:40;132.00;;;18.17;;
71475;SDS011;59286;59.274;17.974;2022-10-31T07:30:08;102.55;;;14.20;;
71475;SDS011;59286;59.274;17.974;2022-10-31T07:32:38;169.82;;;18.38;;
71475;SDS011;59286;59.274;17.974;2022-10-31T07:35:08;56.83;;;8.52;;
71475;SDS011;59286;59.274;17.974;2022-10-31T07:37:35;151.13;;;17.92;;
71475;SDS011;59286;59.274;17.974;2022-10-31T07:40:03;57.08;;;10.20;;
71475;SDS011;59286;59.274;17.974;2022-10-31T07:42:34;104.93;;;14.75;;
71475;SDS011;59286;59.274;17.974;2022-10-31T07:45:04;91.25;;;14.27;;
71475;SDS011;59286;59.274;17.974;2022-10-31T07:47:37;42.33;;;12.85;;
71475;SDS011;59286;59.274;17.974;2022-10-31T07:50:05;97.90;;;21.47;;
71475;SDS011;59286;59.274;17.974;2022-10-31T07:52:32;128.30;;;28.80;;
71475;SDS011;59286;59.274;17.974;2022-10-31T07:54:57;108.88;;;22.67;;
71475;SDS011;59286;59.274;17.974;2022-10-31T07:57:22;80.78;;;22.38;;
71475;SDS011;59286;59.274;17.974;2022-10-31T07:59:48;127.03;;;21.85;;
71475;SDS011;59286;59.274;17.974;2022-10-31T08:02:14;75.50;;;16.17;;
71475;SDS011;59286;59.274;17.974;2022-10-31T08:04:39;73.40;;;13.38;;
71475;SDS011;59286;59.274;17.974;2022-10-31T08:07:04;70.72;;;14.43;;
71475;SDS011;59286;59.274;17.974;2022-10-31T08:09:30;109.10;;;20.08;;
71475;SDS011;59286;59.274;17.974;2022-10-31T08:11:55;138.05;;;22.40;;
71475;SDS011;59286;59.274;17.974;2022-10-31T08:14:20;36.10;;;10.70;;
71475;SDS011;59286;59.274;17.974;2022-10-31T08:16:47;96.82;;;18.42;;
71475;SDS011;59286;59.274;17.974;2022-10-31T08:19:12;127.97;;;21.45;;
71475;SDS011;59286;59.274;17.974;2022-10-31T08:21:38;145.48;;;22.50;;
71475;SDS011;59286;59.274;17.974;2022-10-31T08:24:03;130.57;;;21.23;;
71475;SDS011;59286;59.274;17.974;2022-10-31T08:26:29;92.65;;;22.33;;
71475;SDS011;59286;59.274;17.974;2022-10-31T08:28:55;113.03;;;28.30;;
71475;SDS011;59286;59.274;17.974;2022-10-31T08:31:21;61.17;;;20.48;;
71475;SDS011;59286;59.274;17.974;2022-10-31T08:33:47;91.60;;;30.15;;
71475;SDS011;59286;59.274;17.974;2022-10-31T08:36:13;128.27;;;30.17;;
71475;SDS011;59286;59.274;17.974;2022-10-31T08:38:41;91.30;;;24.35;;
71475;SDS011;59286;59.274;17.974;2022-10-31T08:41:06;153.35;;;49.50;;
71475;SDS011;59286;59.274;17.974;2022-10-31T08:43:31;100.63;;;29.98;;
71475;SDS011;59286;59.274;17.974;2022-10-31T08:45:57;91.80;;;34.38;;
71475;SDS011;59286;59.274;17.974;2022-10-31T08:48:22;95.35;;;33.83;;
71475;SDS011;59286;59.274;17.974;2022-10-31T08:50:48;117.13;;;37.42;;
71475;SDS011;59286;59.274;17.974;2022-10-31T08:53:14;65.75;;;20.20;;
71475;SDS011;59286;59.274;17.974;2022-10-31T08:55:41;88.38;;;23.55;;
71475;SDS011;59286;59.274;17.974;2022-10-31T08:58:12;18.73;;;9.63;;
71475;SDS011;59286;59.274;17.974;2022-10-31T09:00:40;58.50;;;17.48;;
71475;SDS011;59286;59.274;17.974;2022-10-31T09:03:11;58.10;;;17.88;;
71475;SDS011;59286;59.274;17.974;2022-10-31T09:05:39;52.10;;;17.25;;
71475;SDS011;59286;59.274;17.974;2022-10-31T09:08:05;36.25;;;14.07;;
71475;SDS011;59286;59.274;17.974;2022-10-31T09:10:32;55.08;;;20.42;;
71475;SDS011;59286;59.274;17.974;2022-10-31T09:12:59;52.20;;;28.48;;
71475;SDS011;59286;59.274;17.974;2022-10-31T09:15:31;82.43;;;40.80;;
71475;SDS011;59286;59.274;17.974;2022-10-31T09:17:58;191.18;;;98.00;;
71475;SDS011;59286;59.274;17.974;2022-10-31T09:20:23;108.53;;;51.35;;
71475;SDS011;59286;59.274;17.974;2022-10-31T09:22:55;45.03;;;21.08;;
71475;SDS011;59286;59.274;17.974;2022-10-31T09:25:23;59.33;;;25.13;;
71475;SDS011;59286;59.274;17.974;2022-10-31T09:27:49;70.00;;;36.15;;
71475;SDS011;59286;59.274;17.974;2022-10-31T09:30:14;48.00;;;17.55;;
71475;SDS011;59286;59.274;17.974;2022-10-31T09:32:40;50.63;;;19.20;;
71475;SDS011;59286;59.274;17.974;2022-10-31T09:35:05;37.45;;;14.98;;
71475;SDS011;59286;59.274;17.974;2022-10-31T09:37:31;67.55;;;40.22;;
71475;SDS011;59286;59.274;17.974;2022-10-31T09:39:56;32.00;;;15.20;;
71475;SDS011;59286;59.274;17.974;2022-10-31T09:44:52;61.33;;;33.40;;
71475;SDS011;59286;59.274;17.974;2022-10-31T09:53:19;50.47;;;25.75;;
71475;SDS011;59286;59.274;17.974;2022-10-31T09:55:51;42.65;;;20.80;;
71475;SDS011;59286;59.274;17.974;2022-10-31T09:58:25;36.67;;;16.65;;
71475;SDS011;59286;59.274;17.974;2022-10-31T10:00:56;20.58;;;12.30;;
71475;SDS011;59286;59.274;17.974;2022-10-31T10:08:45;34.30;;;16.63;;
71475;SDS011;59286;59.274;17.974;2022-10-31T10:11:30;39.65;;;16.50;;
71475;SDS011;59286;59.274;17.974;2022-10-31T10:30:03;52.22;;;24.73;;
71475;SDS011;59286;59.274;17.974;2022-10-31T10:32:54;23.80;;;14.48;;
71475;SDS011;59286;59.274;17.974;2022-10-31T10:35:25;22.35;;;12.77;;
71475;SDS011;59286;59.274;17.974;2022-10-31T10:38:14;27.00;;;17.02;;
71475;SDS011;59286;59.274;17.974;2022-10-31T10:40:40;24.83;;;13.13;;
71475;SDS011;59286;59.274;17.974;2022-10-31T10:43:19;29.50;;;15.68;;
71475;SDS011;59286;59.274;17.974;2022-10-31T10:51:25;19.63;;;11.80;;
71475;SDS011;59286;59.274;17.974;2022-10-31T10:59:36;25.45;;;16.00;;
71475;SDS011;59286;59.274;17.974;2022-10-31T11:02:03;22.30;;;14.13;;
71475;SDS011;59286;59.274;17.974;2022-10-31T11:04:40;26.92;;;14.57;;
71475;SDS011;59286;59.274;17.974;2022-10-31T11:07:08;25.98;;;14.73;;
71475;SDS011;59286;59.274;17.974;2022-10-31T11:09:35;29.08;;;15.57;;
71475;SDS011;59286;59.274;17.974;2022-10-31T11:12:07;24.30;;;14.38;;
71475;SDS011;59286;59.274;17.974;2022-10-31T11:14:35;20.65;;;11.93;;
71475;SDS011;59286;59.274;17.974;2022-10-31T11:17:17;20.10;;;11.95;;
71475;SDS011;59286;59.274;17.974;2022-10-31T11:19:59;22.48;;;12.52;;
71475;SDS011;59286;59.274;17.974;2022-10-31T11:22:25;19.27;;;11.57;;
71475;SDS011;59286;59.274;17.974;2022-10-31T11:24:51;24.48;;;13.30;;
71475;SDS011;59286;59.274;17.974;2022-10-31T11:27:20;20.90;;;11.90;;
71475;SDS011;59286;59.274;17.974;2022-10-31T11:29:47;19.50;;;11.88;;
71475;SDS011;59286;59.274;17.974;2022-10-31T11:32:24;20.85;;;13.27;;
71475;SDS011;59286;59.274;17.974;2022-10-31T11:34:52;19.48;;;12.05;;
71475;SDS011;59286;59.274;17.974;2022-10-31T11:37:23;23.42;;;12.98;;
71475;SDS011;59286;59.274;17.974;2022-10-31T11:39:54;20.42;;;11.93;;
71475;SDS011;59286;59.274;17.974;2022-10-31T11:42:42;24.00;;;13.32;;
71475;SDS011;59286;59.274;17.974;2022-10-31T11:45:15;21.85;;;12.25;;
71475;SDS011;59286;59.274;17.974;2022-10-31T11:48:02;22.70;;;12.98;;
71475;SDS011;59286;59.274;17.974;2022-10-31T11:50:40;21.10;;;12.63;;
71475;SDS011;59286;59.274;17.974;2022-10-31T11:53:14;18.95;;;10.80;;
71475;SDS011;59286;59.274;17.974;2022-10-31T11:56:13;19.98;;;12.35;;
71475;SDS011;59286;59.274;17.974;2022-10-31T11:58:40;17.45;;;10.85;;
71475;SDS011;59286;59.274;17.974;2022-10-31T12:01:19;16.00;;;9.40;;
71475;SDS011;59286;59.274;17.974;2022-10-31T12:06:40;18.67;;;10.07;;
71475;SDS011;59286;59.274;17.974;2022-10-31T12:09:23;13.85;;;9.55;;
71475;SDS011;59286;59.274;17.974;2022-10-31T12:11:58;13.30;;;8.88;;
71475;SDS011;59286;59.274;17.974;2022-10-31T12:17:34;14.70;;;8.45;;
71475;SDS011;59286;59.274;17.974;2022-10-31T12:20:11;16.48;;;8.63;;
71475;SDS011;59286;59.274;17.974;2022-10-31T12:42:18;15.05;;;7.38;;
71475;SDS011;59286;59.274;17.974;2022-10-31T12:56:05;14.90;;;6.47;;
71475;SDS011;59286;59.274;17.974;2022-10-31T12:58:34;13.02;;;6.97;;
71475;SDS011;59286;59.274;17.974;2022-10-31T13:01:14;12.63;;;6.30;;
71475;SDS011;59286;59.274;17.974;2022-10-31T13:03:46;21.08;;;10.40;;
71475;SDS011;59286;59.274;17.974;2022-10-31T13:06:21;62.25;;;37.75;;
71475;SDS011;59286;59.274;17.974;2022-10-31T13:08:52;15.43;;;9.77;;
71475;SDS011;59286;59.274;17.974;2022-10-31T13:11:27;10.18;;;6.57;;
71475;SDS011;59286;59.274;17.974;2022-10-31T13:16:43;13.55;;;5.90;;
71475;SDS011;59286;59.274;17.974;2022-10-31T13:19:25;13.25;;;6.60;;
71475;SDS011;59286;59.274;17.974;2022-10-31T13:22:00;14.35;;;6.35;;
71475;SDS011;59286;59.274;17.974;2022-10-31T13:24:54;17.08;;;6.28;;
71475;SDS011;59286;59.274;17.974;2022-10-31T13:27:25;12.80;;;7.00;;
71475;SDS011;59286;59.274;17.974;2022-10-31T13:30:02;11.70;;;6.82;;
71475;SDS011;59286;59.274;17.974;2022-10-31T13:32:38;13.15;;;6.10;;
71475;SDS011;59286;59.274;17.974;2022-10-31T13:35:20;11.02;;;5.72;;
71475;SDS011;59286;59.274;17.974;2022-10-31T13:37:54;13.27;;;7.47;;
71475;SDS011;59286;59.274;17.974;2022-10-31T13:43:27;15.73;;;7.45;;
71475;SDS011;59286;59.274;17.974;2022-10-31T13:45:57;11.93;;;5.95;;
71475;SDS011;59286;59.274;17.974;2022-10-31T13:50:58;10.32;;;5.57;;
71475;SDS011;59286;59.274;17.974;2022-10-31T13:53:37;14.00;;;6.53;;
71475;SDS011;59286;59.274;17.974;2022-10-31T13:58:32;14.75;;;6.53;;
71475;SDS011;59286;59.274;17.974;2022-10-31T14:00:59;13.45;;;5.70;;
71475;SDS011;59286;59.274;17.974;2022-10-31T14:03:31;8.07;;;4.95;;
71475;SDS011;59286;59.274;17.974;2022-10-31T14:06:00;8.77;;;4.93;;
71475;SDS011;59286;59.274;17.974;2022-10-31T14:08:26;12.43;;;6.05;;
71475;SDS011;59286;59.274;17.974;2022-10-31T14:10:53;11.07;;;5.63;;
71475;SDS011;59286;59.274;17.974;2022-10-31T14:13:22;16.40;;;9.15;;
71475;SDS011;59286;59.274;17.974;2022-10-31T14:15:56;21.98;;;10.30;;
71475;SDS011;59286;59.274;17.974;2022-10-31T14:18:32;21.52;;;13.50;;
71475;SDS011;59286;59.274;17.974;2022-10-31T14:26:51;11.40;;;5.00;;
71475;SDS011;59286;59.274;17.974;2022-10-31T14:34:16;7.27;;;4.83;;
71475;SDS011;59286;59.274;17.974;2022-10-31T14:36:59;11.60;;;6.07;;
71475;SDS011;59286;59.274;17.974;2022-10-31T14:45:05;11.00;;;5.60;;
71475;SDS011;59286;59.274;17.974;2022-10-31T14:48:00;10.27;;;5.00;;
71475;SDS011;59286;59.274;17.974;2022-10-31T14:50:43;10.10;;;5.55;;
71475;SDS011;59286;59.274;17.974;2022-10-31T14:53:23;10.23;;;5.20;;
71475;SDS011;59286;59.274;17.974;2022-10-31T14:55:53;11.02;;;5.32;;
71475;SDS011;59286;59.274;17.974;2022-10-31T14:58:22;12.90;;;6.30;;
71475;SDS011;59286;59.274;17.974;2022-10-31T15:00:54;11.88;;;7.18;;
71475;SDS011;59286;59.274;17.974;2022-10-31T15:03:32;12.43;;;5.88;;
71475;SDS011;59286;59.274;17.974;2022-10-31T15:06:01;13.45;;;5.50;;
71475;SDS011;59286;59.274;17.974;2022-10-31T15:11:18;12.38;;;5.78;;
71475;SDS011;59286;59.274;17.974;2022-10-31T15:13:56;10.77;;;6.03;;
71475;SDS011;59286;59.274;17.974;2022-10-31T15:16:34;15.05;;;5.85;;
71475;SDS011;59286;59.274;17.974;2022-10-31T15:19:05;8.02;;;5.72;;
71475;SDS011;59286;59.274;17.974;2022-10-31T15:21:32;12.75;;;5.93;;
71475;SDS011;59286;59.274;17.974;2022-10-31T15:23:59;12.40;;;5.30;;
71475;SDS011;59286;59.274;17.974;2022-10-31T15:26:31;10.88;;;5.40;;
71475;SDS011;59286;59.274;17.974;2022-10-31T15:29:04;8.48;;;4.72;;
71475;SDS011;59286;59.274;17.974;2022-10-31T15:31:31;11.02;;;4.57;;
71475;SDS011;59286;59.274;17.974;2022-10-31T15:34:02;10.50;;;4.78;;
71475;SDS011;59286;59.274;17.974;2022-10-31T15:36:39;9.73;;;5.00;;
71475;SDS011;59286;59.274;17.974;2022-10-31T15:39:13;7.95;;;4.38;;
71475;SDS011;59286;59.274;17.974;2022-10-31T15:41:49;8.15;;;4.53;;
71475;SDS011;59286;59.274;17.974;2022-10-31T15:44:21;18.27;;;5.05;;
71475;SDS011;59286;59.274;17.974;2022-10-31T15:47:03;13.50;;;4.53;;
71475;SDS011;59286;59.274;17.974;2022-10-31T15:52:09;13.45;;;6.05;;
71475;SDS011;59286;59.274;17.974;2022-10-31T15:54:46;13.57;;;5.47;;
71475;SDS011;59286;59.274;17.974;2022-10-31T15:57:14;11.25;;;5.53;;
71475;SDS011;59286;59.274;17.974;2022-10-31T15:59:41;12.43;;;6.78;;
71475;SDS011;59286;59.274;17.974;2022-10-31T16:02:11;13.63;;;6.45;;
71475;SDS011;59286;59.274;17.974;2022-10-31T16:04:37;11.80;;;5.50;;
71475;SDS011;59286;59.274;17.974;2022-10-31T16:07:14;11.05;;;5.72;;
71475;SDS011;59286;59.274;17.974;2022-10-31T16:09:48;10.32;;;5.00;;
71475;SDS011;59286;59.274;17.974;2022-10-31T16:12:22;10.13;;;5.68;;
71475;SDS011;59286;59.274;17.974;2022-10-31T16:14:52;12.75;;;5.85;;
71475;SDS011;59286;59.274;17.974;2022-10-31T16:17:20;15.70;;;6.43;;
71475;SDS011;59286;59.274;17.974;2022-10-31T16:19:55;15.07;;;6.18;;
71475;SDS011;59286;59.274;17.974;2022-10-31T16:22:29;10.35;;;5.18;;
71475;SDS011;59286;59.274;17.974;2022-10-31T16:25:01;13.05;;;5.72;;
71475;SDS011;59286;59.274;17.974;2022-10-31T16:27:31;13.20;;;5.50;;
71475;SDS011;59286;59.274;17.974;2022-10-31T16:29:59;11.35;;;5.60;;
71475;SDS011;59286;59.274;17.974;2022-10-31T16:32:34;15.10;;;5.70;;
71475;SDS011;59286;59.274;17.974;2022-10-31T16:37:38;11.05;;;5.38;;
71475;SDS011;59286;59.274;17.974;2022-10-31T16:40:05;12.93;;;5.38;;
71475;SDS011;59286;59.274;17.974;2022-10-31T16:42:31;11.38;;;5.75;;
71475;SDS011;59286;59.274;17.974;2022-10-31T16:44:58;12.07;;;5.50;;
71475;SDS011;59286;59.274;17.974;2022-10-31T16:47:23;13.00;;;5.75;;
71475;SDS011;59286;59.274;17.974;2022-10-31T16:49:49;8.32;;;5.18;;
71475;SDS011;59286;59.274;17.974;2022-10-31T16:52:15;10.90;;;5.05;;
71475;SDS011;59286;59.274;17.974;2022-10-31T16:54:41;11.65;;;5.18;;